sensor_id;sensor_type;location;lat;lon;timestamp;temperature;humidity
8261;DHT22;64115;50.170;8.242;2022-11-30T00:00:52;5.10;99.90
8261;DHT22;64115;50.170;8.242;2022-11-30T00:03:19;5.10;99.90
8261;DHT22;64115;50.170;8.242;2022-11-30T00:05:48;5.10;99.90
8261;DHT22;64115;50.170;8.242;2022-11-30T00:08:15;5.10;99.90
8261;DHT22;64115;50.170;8.242;2022-11-30T00:10:42;5.10;99.90
8261;DHT22;64115;50.170;8.242;2022-11-30T00:13:09;5.10;99.90
8261;DHT22;64115;50.170;8.242;2022-11-30T00:15:36;5.10;99.90
8261;DHT22;64115;50.170;8.242;2022-11-30T00:18:03;5.10;99.90
8261;DHT22;64115;50.170;8.242;2022-11-30T00:20:30;5.10;99.90
8261;DHT22;64115;50.170;8.242;2022-11-30T00:22:58;5.20;99.90
8261;DHT22;64115;50.170;8.242;2022-11-30T00:25:25;5.20;99.90
8261;DHT22;64115;50.170;8.242;2022-11-30T00:27:52;5.30;99.90
8261;DHT22;64115;50.170;8.242;2022-11-30T00:30:19;5.30;99.90
8261;DHT22;64115;50.170;8.242;2022-11-30T00:32:46;5.30;99.90
8261;DHT22;64115;50.170;8.242;2022-11-30T00:35:13;5.30;99.90
8261;DHT22;64115;50.170;8.242;2022-11-30T00:37:39;5.30;99.90
8261;DHT22;64115;50.170;8.242;2022-11-30T00:40:10;5.40;99.90
8261;DHT22;64115;50.170;8.242;2022-11-30T00:42:36;5.40;99.90
8261;DHT22;64115;50.170;8.242;2022-11-30T00:45:04;5.40;99.90
8261;DHT22;64115;50.170;8.242;2022-11-30T00:47:31;5.40;99.90
8261;DHT22;64115;50.170;8.242;2022-11-30T00:49:58;5.40;99.90
8261;DHT22;64115;50.170;8.242;2022-11-30T00:52:24;5.40;99.90
8261;DHT22;64115;50.170;8.242;2022-11-30T00:54:51;5.40;99.90
8261;DHT22;64115;50.170;8.242;2022-11-30T00:57:19;5.40;99.90
8261;DHT22;64115;50.170;8.242;2022-11-30T00:59:46;5.40;99.90
8261;DHT22;64115;50.170;8.242;2022-11-30T01:02:14;5.40;99.90
8261;DHT22;64115;50.170;8.242;2022-11-30T01:04:41;5.40;99.90
8261;DHT22;64115;50.170;8.242;2022-11-30T01:07:07;5.50;99.90
8261;DHT22;64115;50.170;8.242;2022-11-30T01:09:34;5.40;99.90
8261;DHT22;64115;50.170;8.242;2022-11-30T01:12:01;5.50;99.90
8261;DHT22;64115;50.170;8.242;2022-11-30T01:14:29;5.50;99.90
8261;DHT22;64115;50.170;8.242;2022-11-30T01:16:56;5.50;99.90
8261;DHT22;64115;50.170;8.242;2022-11-30T01:19:23;5.50;99.90
8261;DHT22;64115;50.170;8.242;2022-11-30T01:21:49;5.50;99.90
8261;DHT22;64115;50.170;8.242;2022-11-30T01:24:16;5.50;99.90
8261;DHT22;64115;50.170;8.242;2022-11-30T01:26:43;5.50;99.90
8261;DHT22;64115;50.170;8.242;2022-11-30T01:29:10;5.50;99.90
8261;DHT22;64115;50.170;8.242;2022-11-30T01:31:38;5.50;99.90
8261;DHT22;64115;50.170;8.242;2022-11-30T01:34:05;5.50;99.90
8261;DHT22;64115;50.170;8.242;2022-11-30T01:36:32;5.50;99.90
8261;DHT22;64115;50.170;8.242;2022-11-30T01:38:58;5.50;99.90
8261;DHT22;64115;50.170;8.242;2022-11-30T01:41:28;5.50;99.90
8261;DHT22;64115;50.170;8.242;2022-11-30T01:43:56;5.50;99.90
8261;DHT22;64115;50.170;8.242;2022-11-30T01:46:27;5.50;99.90
8261;DHT22;64115;50.170;8.242;2022-11-30T01:49:15;5.50;99.90
8261;DHT22;64115;50.170;8.242;2022-11-30T01:51:45;5.50;99.90
8261;DHT22;64115;50.170;8.242;2022-11-30T01:54:14;5.50;99.90
8261;DHT22;64115;50.170;8.242;2022-11-30T01:56:45;5.50;99.90
8261;DHT22;64115;50.170;8.242;2022-11-30T01:59:14;5.50;99.90
8261;DHT22;64115;50.170;8.242;2022-11-30T02:01:42;5.50;99.90
8261;DHT22;64115;50.170;8.242;2022-11-30T02:04:14;5.50;99.90
8261;DHT22;64115;50.170;8.242;2022-11-30T02:06:43;5.50;99.90
8261;DHT22;64115;50.170;8.242;2022-11-30T02:09:12;5.40;99.90
8261;DHT22;64115;50.170;8.242;2022-11-30T02:11:39;5.40;99.90
8261;DHT22;64115;50.170;8.242;2022-11-30T02:14:16;5.50;99.90
8261;DHT22;64115;50.170;8.242;2022-11-30T02:16:51;5.40;99.90
8261;DHT22;64115;50.170;8.242;2022-11-30T02:19:48;5.40;99.90
8261;DHT22;64115;50.170;8.242;2022-11-30T02:22:29;5.40;99.90
8261;DHT22;64115;50.170;8.242;2022-11-30T02:25:06;5.40;99.90
8261;DHT22;64115;50.170;8.242;2022-11-30T02:27:49;5.40;99.90
8261;DHT22;64115;50.170;8.242;2022-11-30T02:30:22;5.40;99.90
8261;DHT22;64115;50.170;8.242;2022-11-30T02:32:51;5.40;99.90
8261;DHT22;64115;50.170;8.242;2022-11-30T02:35:22;5.40;99.90
8261;DHT22;64115;50.170;8.242;2022-11-30T02:37:52;5.50;99.90
8261;DHT22;64115;50.170;8.242;2022-11-30T02:40:20;5.50;99.90
8261;DHT22;64115;50.170;8.242;2022-11-30T02:42:48;5.50;99.90
8261;DHT22;64115;50.170;8.242;2022-11-30T02:45:16;5.50;99.90
8261;DHT22;64115;50.170;8.242;2022-11-30T02:47:49;5.50;99.90
8261;DHT22;64115;50.170;8.242;2022-11-30T02:50:23;5.50;99.90
8261;DHT22;64115;50.170;8.242;2022-11-30T02:52:51;5.50;99.90
8261;DHT22;64115;50.170;8.242;2022-11-30T02:55:19;5.50;99.90
8261;DHT22;64115;50.170;8.242;2022-11-30T02:57:46;5.50;99.90
8261;DHT22;64115;50.170;8.242;2022-11-30T03:00:14;5.60;99.90
8261;DHT22;64115;50.170;8.242;2022-11-30T03:02:41;5.50;99.90
8261;DHT22;64115;50.170;8.242;2022-11-30T03:05:09;5.50;99.90
8261;DHT22;64115;50.170;8.242;2022-11-30T03:07:37;5.60;99.90
8261;DHT22;64115;50.170;8.242;2022-11-30T03:10:05;5.60;99.90
8261;DHT22;64115;50.170;8.242;2022-11-30T03:12:32;5.60;99.90
8261;DHT22;64115;50.170;8.242;2022-11-30T03:14:58;5.60;99.90
8261;DHT22;64115;50.170;8.242;2022-11-30T03:17:25;5.60;99.90
8261;DHT22;64115;50.170;8.242;2022-11-30T03:19:52;5.50;99.90
8261;DHT22;64115;50.170;8.242;2022-11-30T03:22:20;5.60;99.90
8261;DHT22;64115;50.170;8.242;2022-11-30T03:24:47;5.60;99.90
8261;DHT22;64115;50.170;8.242;2022-11-30T03:27:14;5.60;99.90
8261;DHT22;64115;50.170;8.242;2022-11-30T03:29:41;5.60;99.90
8261;DHT22;64115;50.170;8.242;2022-11-30T03:32:08;5.50;99.90
8261;DHT22;64115;50.170;8.242;2022-11-30T03:34:34;5.50;99.90
8261;DHT22;64115;50.170;8.242;2022-11-30T03:37:01;5.60;99.90
8261;DHT22;64115;50.170;8.242;2022-11-30T03:39:29;5.60;99.90
8261;DHT22;64115;50.170;8.242;2022-11-30T03:41:56;5.60;99.90
8261;DHT22;64115;50.170;8.242;2022-11-30T03:44:23;5.60;99.90
8261;DHT22;64115;50.170;8.242;2022-11-30T03:46:50;5.60;99.90
8261;DHT22;64115;50.170;8.242;2022-11-30T03:49:16;5.60;99.90
8261;DHT22;64115;50.170;8.242;2022-11-30T03:51:43;5.60;99.90
8261;DHT22;64115;50.170;8.242;2022-11-30T03:54:10;5.60;99.90
8261;DHT22;64115;50.170;8.242;2022-11-30T03:56:38;5.50;99.90
8261;DHT22;64115;50.170;8.242;2022-11-30T03:59:05;5.50;99.90
8261;DHT22;64115;50.170;8.242;2022-11-30T04:01:32;5.50;99.90
8261;DHT22;64115;50.170;8.242;2022-11-30T04:04:00;5.50;99.90
8261;DHT22;64115;50.170;8.242;2022-11-30T04:06:27;5.50;99.90
8261;DHT22;64115;50.170;8.242;2022-11-30T04:08:54;5.50;99.90
8261;DHT22;64115;50.170;8.242;2022-11-30T04:11:20;5.50;99.90
8261;DHT22;64115;50.170;8.242;2022-11-30T04:13:49;5.50;99.90
8261;DHT22;64115;50.170;8.242;2022-11-30T04:16:15;5.50;99.90
8261;DHT22;64115;50.170;8.242;2022-11-30T04:18:42;5.50;99.90
8261;DHT22;64115;50.170;8.242;2022-11-30T04:21:09;5.60;99.90
8261;DHT22;64115;50.170;8.242;2022-11-30T04:23:38;5.60;99.90
8261;DHT22;64115;50.170;8.242;2022-11-30T04:26:06;5.60;99.90
8261;DHT22;64115;50.170;8.242;2022-11-30T04:28:34;5.50;99.90
8261;DHT22;64115;50.170;8.242;2022-11-30T04:31:02;5.50;99.90
8261;DHT22;64115;50.170;8.242;2022-11-30T04:33:29;5.50;99.90
8261;DHT22;64115;50.170;8.242;2022-11-30T04:35:58;5.50;99.90
8261;DHT22;64115;50.170;8.242;2022-11-30T04:38:26;5.50;99.90
8261;DHT22;64115;50.170;8.242;2022-11-30T04:40:53;5.50;99.90
8261;DHT22;64115;50.170;8.242;2022-11-30T04:43:21;5.50;99.90
8261;DHT22;64115;50.170;8.242;2022-11-30T04:45:49;5.50;99.90
8261;DHT22;64115;50.170;8.242;2022-11-30T04:48:18;5.50;99.90
8261;DHT22;64115;50.170;8.242;2022-11-30T04:50:44;5.50;99.90
8261;DHT22;64115;50.170;8.242;2022-11-30T04:53:11;5.50;99.90
8261;DHT22;64115;50.170;8.242;2022-11-30T04:55:38;5.50;99.90
8261;DHT22;64115;50.170;8.242;2022-11-30T04:58:05;5.50;99.90
8261;DHT22;64115;50.170;8.242;2022-11-30T05:00:33;5.50;99.90
8261;DHT22;64115;50.170;8.242;2022-11-30T05:03:00;5.50;99.90
8261;DHT22;64115;50.170;8.242;2022-11-30T05:05:28;5.50;99.90
8261;DHT22;64115;50.170;8.242;2022-11-30T05:07:56;5.60;99.90
8261;DHT22;64115;50.170;8.242;2022-11-30T05:10:24;5.60;99.90
8261;DHT22;64115;50.170;8.242;2022-11-30T05:12:51;5.50;99.90
8261;DHT22;64115;50.170;8.242;2022-11-30T05:15:18;5.50;99.90
8261;DHT22;64115;50.170;8.242;2022-11-30T05:17:45;5.50;99.90
8261;DHT22;64115;50.170;8.242;2022-11-30T05:20:12;5.50;99.90
8261;DHT22;64115;50.170;8.242;2022-11-30T05:22:40;5.40;99.90
8261;DHT22;64115;50.170;8.242;2022-11-30T05:25:08;5.50;99.90
8261;DHT22;64115;50.170;8.242;2022-11-30T05:27:34;5.50;99.90
8261;DHT22;64115;50.170;8.242;2022-11-30T05:30:01;5.50;99.90
8261;DHT22;64115;50.170;8.242;2022-11-30T05:32:28;5.50;99.90
8261;DHT22;64115;50.170;8.242;2022-11-30T05:34:55;5.50;99.90
8261;DHT22;64115;50.170;8.242;2022-11-30T05:37:22;5.40;99.90
8261;DHT22;64115;50.170;8.242;2022-11-30T05:39:50;5.50;99.90
8261;DHT22;64115;50.170;8.242;2022-11-30T05:42:17;5.50;99.90
8261;DHT22;64115;50.170;8.242;2022-11-30T05:44:44;5.50;99.90
8261;DHT22;64115;50.170;8.242;2022-11-30T05:47:12;5.50;99.90
8261;DHT22;64115;50.170;8.242;2022-11-30T05:49:38;5.50;99.90
8261;DHT22;64115;50.170;8.242;2022-11-30T05:52:05;5.50;99.90
8261;DHT22;64115;50.170;8.242;2022-11-30T05:54:32;5.50;99.90
8261;DHT22;64115;50.170;8.242;2022-11-30T05:57:01;5.50;99.90
8261;DHT22;64115;50.170;8.242;2022-11-30T05:59:27;5.60;99.90
8261;DHT22;64115;50.170;8.242;2022-11-30T06:01:54;5.60;99.90
8261;DHT22;64115;50.170;8.242;2022-11-30T06:04:21;5.60;99.90
8261;DHT22;64115;50.170;8.242;2022-11-30T06:06:48;5.60;99.90
8261;DHT22;64115;50.170;8.242;2022-11-30T06:09:16;5.60;99.90
8261;DHT22;64115;50.170;8.242;2022-11-30T06:11:43;5.60;99.90
8261;DHT22;64115;50.170;8.242;2022-11-30T06:14:11;5.60;99.90
8261;DHT22;64115;50.170;8.242;2022-11-30T06:16:38;5.70;99.90
8261;DHT22;64115;50.170;8.242;2022-11-30T06:19:05;5.60;99.90
8261;DHT22;64115;50.170;8.242;2022-11-30T06:21:32;5.60;99.90
8261;DHT22;64115;50.170;8.242;2022-11-30T06:23:59;5.60;99.90
8261;DHT22;64115;50.170;8.242;2022-11-30T06:26:26;5.60;99.90
8261;DHT22;64115;50.170;8.242;2022-11-30T06:28:53;5.60;99.90
8261;DHT22;64115;50.170;8.242;2022-11-30T06:31:21;5.60;99.90
8261;DHT22;64115;50.170;8.242;2022-11-30T06:33:48;5.60;99.90
8261;DHT22;64115;50.170;8.242;2022-11-30T06:36:20;5.60;99.90
8261;DHT22;64115;50.170;8.242;2022-11-30T06:38:48;5.60;99.90
8261;DHT22;64115;50.170;8.242;2022-11-30T06:41:15;5.60;99.90
8261;DHT22;64115;50.170;8.242;2022-11-30T06:43:42;5.60;99.90
8261;DHT22;64115;50.170;8.242;2022-11-30T06:46:09;5.60;99.90
8261;DHT22;64115;50.170;8.242;2022-11-30T06:48:37;5.60;99.90
8261;DHT22;64115;50.170;8.242;2022-11-30T06:51:05;5.60;99.90
8261;DHT22;64115;50.170;8.242;2022-11-30T06:53:32;5.50;99.90
8261;DHT22;64115;50.170;8.242;2022-11-30T06:56:03;5.50;99.90
8261;DHT22;64115;50.170;8.242;2022-11-30T06:58:30;5.50;99.90
8261;DHT22;64115;50.170;8.242;2022-11-30T07:00:57;5.50;99.90
8261;DHT22;64115;50.170;8.242;2022-11-30T07:03:24;5.50;99.90
8261;DHT22;64115;50.170;8.242;2022-11-30T07:05:52;5.50;99.90
8261;DHT22;64115;50.170;8.242;2022-11-30T07:08:19;5.50;99.90
8261;DHT22;64115;50.170;8.242;2022-11-30T07:10:47;5.50;99.90
8261;DHT22;64115;50.170;8.242;2022-11-30T07:13:15;5.40;99.90
8261;DHT22;64115;50.170;8.242;2022-11-30T07:15:43;5.40;99.90
8261;DHT22;64115;50.170;8.242;2022-11-30T07:18:10;5.50;99.90
8261;DHT22;64115;50.170;8.242;2022-11-30T07:20:38;5.50;99.90
8261;DHT22;64115;50.170;8.242;2022-11-30T07:23:06;5.50;99.90
8261;DHT22;64115;50.170;8.242;2022-11-30T07:25:52;5.50;99.90
8261;DHT22;64115;50.170;8.242;2022-11-30T07:28:35;5.60;99.90
8261;DHT22;64115;50.170;8.242;2022-11-30T07:31:12;5.50;99.90
8261;DHT22;64115;50.170;8.242;2022-11-30T07:33:39;5.50;99.90
8261;DHT22;64115;50.170;8.242;2022-11-30T07:36:06;5.50;99.90
8261;DHT22;64115;50.170;8.242;2022-11-30T07:38:35;5.50;99.90
8261;DHT22;64115;50.170;8.242;2022-11-30T07:41:02;5.60;99.90
8261;DHT22;64115;50.170;8.242;2022-11-30T07:43:29;5.60;99.90
8261;DHT22;64115;50.170;8.242;2022-11-30T07:45:56;5.70;99.90
8261;DHT22;64115;50.170;8.242;2022-11-30T07:48:22;5.60;99.90
8261;DHT22;64115;50.170;8.242;2022-11-30T07:50:50;5.70;99.90
8261;DHT22;64115;50.170;8.242;2022-11-30T07:53:16;5.70;99.90
8261;DHT22;64115;50.170;8.242;2022-11-30T07:55:45;5.80;99.90
8261;DHT22;64115;50.170;8.242;2022-11-30T07:58:11;5.80;99.90
8261;DHT22;64115;50.170;8.242;2022-11-30T08:00:38;5.80;99.90
8261;DHT22;64115;50.170;8.242;2022-11-30T08:03:05;5.80;99.90
8261;DHT22;64115;50.170;8.242;2022-11-30T08:05:32;5.80;99.90
8261;DHT22;64115;50.170;8.242;2022-11-30T08:07:59;5.80;99.90
8261;DHT22;64115;50.170;8.242;2022-11-30T08:10:26;5.90;99.90
8261;DHT22;64115;50.170;8.242;2022-11-30T08:12:54;5.90;99.90
8261;DHT22;64115;50.170;8.242;2022-11-30T08:15:21;5.90;99.90
8261;DHT22;64115;50.170;8.242;2022-11-30T08:17:48;5.90;99.90
8261;DHT22;64115;50.170;8.242;2022-11-30T08:20:20;5.90;99.90
8261;DHT22;64115;50.170;8.242;2022-11-30T08:22:47;5.90;99.90
8261;DHT22;64115;50.170;8.242;2022-11-30T08:25:16;5.90;99.90
8261;DHT22;64115;50.170;8.242;2022-11-30T08:27:43;5.80;99.90
8261;DHT22;64115;50.170;8.242;2022-11-30T08:30:12;5.80;99.90
8261;DHT22;64115;50.170;8.242;2022-11-30T08:32:38;5.90;99.90
8261;DHT22;64115;50.170;8.242;2022-11-30T08:35:06;5.90;99.90
8261;DHT22;64115;50.170;8.242;2022-11-30T08:37:35;5.80;99.90
8261;DHT22;64115;50.170;8.242;2022-11-30T08:40:02;5.80;99.90
8261;DHT22;64115;50.170;8.242;2022-11-30T08:42:29;5.90;99.90
8261;DHT22;64115;50.170;8.242;2022-11-30T08:44:56;5.90;99.90
8261;DHT22;64115;50.170;8.242;2022-11-30T08:47:25;5.90;99.90
8261;DHT22;64115;50.170;8.242;2022-11-30T08:49:51;6.00;99.90
8261;DHT22;64115;50.170;8.242;2022-11-30T08:52:18;6.00;99.90
8261;DHT22;64115;50.170;8.242;2022-11-30T08:54:46;6.00;99.90
8261;DHT22;64115;50.170;8.242;2022-11-30T08:57:13;6.10;99.90
8261;DHT22;64115;50.170;8.242;2022-11-30T08:59:40;6.10;99.90
8261;DHT22;64115;50.170;8.242;2022-11-30T09:02:08;6.00;99.90
8261;DHT22;64115;50.170;8.242;2022-11-30T09:04:36;6.00;99.90
8261;DHT22;64115;50.170;8.242;2022-11-30T09:07:03;6.10;99.90
8261;DHT22;64115;50.170;8.242;2022-11-30T09:09:30;6.10;99.90
8261;DHT22;64115;50.170;8.242;2022-11-30T09:11:57;6.10;99.90
8261;DHT22;64115;50.170;8.242;2022-11-30T09:14:24;6.00;99.90
8261;DHT22;64115;50.170;8.242;2022-11-30T09:16:52;6.00;99.90
8261;DHT22;64115;50.170;8.242;2022-11-30T09:19:19;5.90;99.90
8261;DHT22;64115;50.170;8.242;2022-11-30T09:21:48;5.90;99.90
8261;DHT22;64115;50.170;8.242;2022-11-30T09:24:15;6.00;99.90
8261;DHT22;64115;50.170;8.242;2022-11-30T09:26:42;6.10;99.90
8261;DHT22;64115;50.170;8.242;2022-11-30T09:29:08;6.20;99.90
8261;DHT22;64115;50.170;8.242;2022-11-30T09:31:35;6.20;99.90
8261;DHT22;64115;50.170;8.242;2022-11-30T09:34:02;6.20;99.90
8261;DHT22;64115;50.170;8.242;2022-11-30T09:36:29;6.30;99.90
8261;DHT22;64115;50.170;8.242;2022-11-30T09:38:58;6.30;99.90
8261;DHT22;64115;50.170;8.242;2022-11-30T09:41:50;6.30;99.90
8261;DHT22;64115;50.170;8.242;2022-11-30T09:44:24;6.30;99.90
8261;DHT22;64115;50.170;8.242;2022-11-30T09:46:58;6.30;99.90
8261;DHT22;64115;50.170;8.242;2022-11-30T09:49:31;6.40;99.90
8261;DHT22;64115;50.170;8.242;2022-11-30T09:52:02;6.40;99.90
8261;DHT22;64115;50.170;8.242;2022-11-30T09:54:36;6.40;99.90
8261;DHT22;64115;50.170;8.242;2022-11-30T09:57:17;6.40;99.90
8261;DHT22;64115;50.170;8.242;2022-11-30T09:59:52;6.40;99.90
8261;DHT22;64115;50.170;8.242;2022-11-30T10:02:21;6.40;99.90
8261;DHT22;64115;50.170;8.242;2022-11-30T10:04:50;6.50;99.90
8261;DHT22;64115;50.170;8.242;2022-11-30T10:07:32;6.40;99.90
8261;DHT22;64115;50.170;8.242;2022-11-30T10:10:09;6.40;99.90
8261;DHT22;64115;50.170;8.242;2022-11-30T10:12:42;6.40;99.90
8261;DHT22;64115;50.170;8.242;2022-11-30T10:15:26;6.40;99.90
8261;DHT22;64115;50.170;8.242;2022-11-30T10:18:06;6.50;99.90
8261;DHT22;64115;50.170;8.242;2022-11-30T10:20:49;6.50;99.90
8261;DHT22;64115;50.170;8.242;2022-11-30T10:23:29;6.50;99.90
8261;DHT22;64115;50.170;8.242;2022-11-30T10:26:06;6.50;99.90
8261;DHT22;64115;50.170;8.242;2022-11-30T10:28:42;6.40;99.90
8261;DHT22;64115;50.170;8.242;2022-11-30T10:31:11;6.30;99.90
8261;DHT22;64115;50.170;8.242;2022-11-30T10:33:42;6.40;99.90
8261;DHT22;64115;50.170;8.242;2022-11-30T10:36:12;6.40;99.90
8261;DHT22;64115;50.170;8.242;2022-11-30T10:38:43;6.40;99.90
8261;DHT22;64115;50.170;8.242;2022-11-30T10:41:17;6.40;99.90
8261;DHT22;64115;50.170;8.242;2022-11-30T10:43:48;6.40;99.90
8261;DHT22;64115;50.170;8.242;2022-11-30T10:46:20;6.40;99.90
8261;DHT22;64115;50.170;8.242;2022-11-30T10:48:50;6.50;99.90
8261;DHT22;64115;50.170;8.242;2022-11-30T10:51:20;6.50;99.90
8261;DHT22;64115;50.170;8.242;2022-11-30T10:53:47;6.60;99.90
8261;DHT22;64115;50.170;8.242;2022-11-30T10:56:15;6.60;99.90
8261;DHT22;64115;50.170;8.242;2022-11-30T10:58:52;6.70;99.90
8261;DHT22;64115;50.170;8.242;2022-11-30T11:01:32;6.70;99.90
8261;DHT22;64115;50.170;8.242;2022-11-30T11:04:08;6.70;99.90
8261;DHT22;64115;50.170;8.242;2022-11-30T11:06:41;6.70;99.90
8261;DHT22;64115;50.170;8.242;2022-11-30T11:09:30;6.60;99.90
8261;DHT22;64115;50.170;8.242;2022-11-30T11:12:00;6.70;99.90
8261;DHT22;64115;50.170;8.242;2022-11-30T11:14:28;6.80;99.90
8261;DHT22;64115;50.170;8.242;2022-11-30T11:16:57;6.80;99.90
8261;DHT22;64115;50.170;8.242;2022-11-30T11:19:39;6.80;99.90
8261;DHT22;64115;50.170;8.242;2022-11-30T11:22:16;6.70;99.90
8261;DHT22;64115;50.170;8.242;2022-11-30T11:24:43;6.60;99.90
8261;DHT22;64115;50.170;8.242;2022-11-30T11:27:25;6.50;99.90
8261;DHT22;64115;50.170;8.242;2022-11-30T11:30:02;6.50;99.90
8261;DHT22;64115;50.170;8.242;2022-11-30T11:32:30;6.50;99.90
8261;DHT22;64115;50.170;8.242;2022-11-30T11:34:58;6.50;99.90
8261;DHT22;64115;50.170;8.242;2022-11-30T11:37:26;6.40;99.90
8261;DHT22;64115;50.170;8.242;2022-11-30T11:39:58;6.40;99.90
8261;DHT22;64115;50.170;8.242;2022-11-30T11:42:28;6.50;99.90
8261;DHT22;64115;50.170;8.242;2022-11-30T11:44:57;6.50;99.90
8261;DHT22;64115;50.170;8.242;2022-11-30T11:47:26;6.50;99.90
8261;DHT22;64115;50.170;8.242;2022-11-30T11:50:24;6.50;99.90
8261;DHT22;64115;50.170;8.242;2022-11-30T11:53:16;6.50;99.90
8261;DHT22;64115;50.170;8.242;2022-11-30T11:55:51;6.50;99.90
8261;DHT22;64115;50.170;8.242;2022-11-30T11:58:30;6.50;99.90
8261;DHT22;64115;50.170;8.242;2022-11-30T12:01:02;6.50;99.90
8261;DHT22;64115;50.170;8.242;2022-11-30T12:03:37;6.50;99.90
8261;DHT22;64115;50.170;8.242;2022-11-30T12:06:08;6.50;99.90
8261;DHT22;64115;50.170;8.242;2022-11-30T12:08:43;6.50;99.90
8261;DHT22;64115;50.170;8.242;2022-11-30T12:11:14;6.50;99.90
8261;DHT22;64115;50.170;8.242;2022-11-30T12:13:44;6.50;99.90
8261;DHT22;64115;50.170;8.242;2022-11-30T12:16:22;6.60;99.90
8261;DHT22;64115;50.170;8.242;2022-11-30T12:18:53;6.60;99.90
8261;DHT22;64115;50.170;8.242;2022-11-30T12:21:30;6.60;99.90
8261;DHT22;64115;50.170;8.242;2022-11-30T12:24:37;6.60;99.90
8261;DHT22;64115;50.170;8.242;2022-11-30T12:27:15;6.70;99.90
8261;DHT22;64115;50.170;8.242;2022-11-30T12:29:54;6.80;99.90
8261;DHT22;64115;50.170;8.242;2022-11-30T12:32:30;6.70;99.90
8261;DHT22;64115;50.170;8.242;2022-11-30T12:35:18;6.70;99.90
8261;DHT22;64115;50.170;8.242;2022-11-30T12:37:58;6.60;99.90
8261;DHT22;64115;50.170;8.242;2022-11-30T12:40:34;6.60;99.90
8261;DHT22;64115;50.170;8.242;2022-11-30T12:43:12;6.50;99.90
8261;DHT22;64115;50.170;8.242;2022-11-30T12:45:44;6.40;99.90
8261;DHT22;64115;50.170;8.242;2022-11-30T12:48:21;6.30;99.90
8261;DHT22;64115;50.170;8.242;2022-11-30T12:51:02;6.30;99.90
8261;DHT22;64115;50.170;8.242;2022-11-30T12:53:36;6.40;99.90
8261;DHT22;64115;50.170;8.242;2022-11-30T12:56:15;6.40;99.90
8261;DHT22;64115;50.170;8.242;2022-11-30T12:58:49;6.40;99.90
8261;DHT22;64115;50.170;8.242;2022-11-30T13:01:32;6.40;99.90
8261;DHT22;64115;50.170;8.242;2022-11-30T13:04:03;6.50;99.90
8261;DHT22;64115;50.170;8.242;2022-11-30T13:06:36;6.40;99.90
8261;DHT22;64115;50.170;8.242;2022-11-30T13:09:09;6.40;99.90
8261;DHT22;64115;50.170;8.242;2022-11-30T13:11:40;6.40;99.90
8261;DHT22;64115;50.170;8.242;2022-11-30T13:14:12;6.30;99.90
8261;DHT22;64115;50.170;8.242;2022-11-30T13:16:42;6.30;99.90
8261;DHT22;64115;50.170;8.242;2022-11-30T13:19:23;6.30;99.90
8261;DHT22;64115;50.170;8.242;2022-11-30T13:21:56;6.30;99.90
8261;DHT22;64115;50.170;8.242;2022-11-30T13:24:27;6.20;99.90
8261;DHT22;64115;50.170;8.242;2022-11-30T13:26:59;6.20;99.90
8261;DHT22;64115;50.170;8.242;2022-11-30T13:29:56;6.10;99.90
8261;DHT22;64115;50.170;8.242;2022-11-30T13:32:27;6.10;99.90
8261;DHT22;64115;50.170;8.242;2022-11-30T13:38:00;6.00;99.90
8261;DHT22;64115;50.170;8.242;2022-11-30T13:40:27;6.10;99.90
8261;DHT22;64115;50.170;8.242;2022-11-30T13:42:54;6.00;99.90
8261;DHT22;64115;50.170;8.242;2022-11-30T13:45:28;6.10;99.90
8261;DHT22;64115;50.170;8.242;2022-11-30T13:47:58;6.00;99.90
8261;DHT22;64115;50.170;8.242;2022-11-30T13:50:35;6.10;99.90
8261;DHT22;64115;50.170;8.242;2022-11-30T13:53:17;6.10;99.90
8261;DHT22;64115;50.170;8.242;2022-11-30T13:55:57;6.20;99.90
8261;DHT22;64115;50.170;8.242;2022-11-30T13:58:25;6.20;99.90
8261;DHT22;64115;50.170;8.242;2022-11-30T14:01:18;6.20;99.90
8261;DHT22;64115;50.170;8.242;2022-11-30T14:07:02;6.20;99.90
8261;DHT22;64115;50.170;8.242;2022-11-30T14:09:58;6.20;99.90
8261;DHT22;64115;50.170;8.242;2022-11-30T14:12:59;6.10;99.90
8261;DHT22;64115;50.170;8.242;2022-11-30T14:15:29;6.10;99.90
8261;DHT22;64115;50.170;8.242;2022-11-30T14:18:21;6.10;99.90
8261;DHT22;64115;50.170;8.242;2022-11-30T14:20:51;6.20;99.90
8261;DHT22;64115;50.170;8.242;2022-11-30T14:23:25;6.20;99.90
8261;DHT22;64115;50.170;8.242;2022-11-30T14:25:54;6.20;99.90
8261;DHT22;64115;50.170;8.242;2022-11-30T14:28:24;6.20;99.90
8261;DHT22;64115;50.170;8.242;2022-11-30T14:30:54;6.10;99.90
8261;DHT22;64115;50.170;8.242;2022-11-30T14:33:24;6.20;99.90
8261;DHT22;64115;50.170;8.242;2022-11-30T14:35:54;6.20;99.90
8261;DHT22;64115;50.170;8.242;2022-11-30T14:38:27;6.10;99.90
8261;DHT22;64115;50.170;8.242;2022-11-30T14:40:55;6.20;99.90
8261;DHT22;64115;50.170;8.242;2022-11-30T14:43:23;6.10;99.90
8261;DHT22;64115;50.170;8.242;2022-11-30T14:45:57;6.20;99.90
8261;DHT22;64115;50.170;8.242;2022-11-30T14:48:24;6.20;99.90
8261;DHT22;64115;50.170;8.242;2022-11-30T14:50:54;6.20;99.90
8261;DHT22;64115;50.170;8.242;2022-11-30T14:53:29;6.10;99.90
8261;DHT22;64115;50.170;8.242;2022-11-30T14:56:05;6.20;99.90
8261;DHT22;64115;50.170;8.242;2022-11-30T14:58:36;6.10;99.90
8261;DHT22;64115;50.170;8.242;2022-11-30T15:01:16;6.10;99.90
8261;DHT22;64115;50.170;8.242;2022-11-30T15:03:43;6.20;99.90
8261;DHT22;64115;50.170;8.242;2022-11-30T15:06:14;6.20;99.90
8261;DHT22;64115;50.170;8.242;2022-11-30T15:08:45;6.10;99.90
8261;DHT22;64115;50.170;8.242;2022-11-30T15:11:14;6.10;99.90
8261;DHT22;64115;50.170;8.242;2022-11-30T15:13:44;6.10;99.90
8261;DHT22;64115;50.170;8.242;2022-11-30T15:16:17;6.00;99.90
8261;DHT22;64115;50.170;8.242;2022-11-30T15:18:45;6.00;99.90
8261;DHT22;64115;50.170;8.242;2022-11-30T15:21:14;6.10;99.90
8261;DHT22;64115;50.170;8.242;2022-11-30T15:23:44;6.10;99.90
8261;DHT22;64115;50.170;8.242;2022-11-30T15:26:15;6.10;99.90
8261;DHT22;64115;50.170;8.242;2022-11-30T15:28:55;6.10;99.90
8261;DHT22;64115;50.170;8.242;2022-11-30T15:31:23;6.00;99.90
8261;DHT22;64115;50.170;8.242;2022-11-30T15:33:53;5.90;99.90
8261;DHT22;64115;50.170;8.242;2022-11-30T15:36:20;6.00;99.90
8261;DHT22;64115;50.170;8.242;2022-11-30T15:38:49;6.00;99.90
8261;DHT22;64115;50.170;8.242;2022-11-30T15:41:19;6.00;99.90
8261;DHT22;64115;50.170;8.242;2022-11-30T15:43:49;6.00;99.90
8261;DHT22;64115;50.170;8.242;2022-11-30T15:46:29;6.00;99.90
8261;DHT22;64115;50.170;8.242;2022-11-30T15:49:04;5.90;99.90
8261;DHT22;64115;50.170;8.242;2022-11-30T15:51:36;5.90;99.90
8261;DHT22;64115;50.170;8.242;2022-11-30T15:54:06;5.90;99.90
8261;DHT22;64115;50.170;8.242;2022-11-30T15:56:34;5.90;99.90
8261;DHT22;64115;50.170;8.242;2022-11-30T15:59:03;5.90;99.90
8261;DHT22;64115;50.170;8.242;2022-11-30T16:01:37;5.90;99.90
8261;DHT22;64115;50.170;8.242;2022-11-30T16:04:26;5.90;99.90
8261;DHT22;64115;50.170;8.242;2022-11-30T16:06:53;5.90;99.90
8261;DHT22;64115;50.170;8.242;2022-11-30T16:09:23;5.90;99.90
8261;DHT22;64115;50.170;8.242;2022-11-30T16:11:53;5.90;99.90
8261;DHT22;64115;50.170;8.242;2022-11-30T16:14:21;5.90;99.90
8261;DHT22;64115;50.170;8.242;2022-11-30T16:16:49;5.90;99.90
8261;DHT22;64115;50.170;8.242;2022-11-30T16:19:18;5.90;99.90
8261;DHT22;64115;50.170;8.242;2022-11-30T16:21:45;5.90;99.90
8261;DHT22;64115;50.170;8.242;2022-11-30T16:24:13;5.90;99.90
8261;DHT22;64115;50.170;8.242;2022-11-30T16:26:41;5.90;99.90
8261;DHT22;64115;50.170;8.242;2022-11-30T16:29:08;5.90;99.90